Union, North Carolina
Current Conditions -  °F | °C
As of 5:55 PM on Tuesday 25 Nov 2014 (Local Time) from KRHP Reporting Station
Clear Clear  
Wind Chill: 47°   Ceiling: Unl
Heat Index: 47°   Visibility: 10mi
Dew Point: 35°   Wind: 0mph
Humidity: 61%   Direction: NA
Pressure: 30.01"   Gusts: NA
Location:  35.1737°N, 83.4215°W
Report Text: KRHP 252255Z AUTO 00000KT 10SM CLR 09/01 A3001 RMK AO2 T00860014
Loading
Personal Weather Stations






























Interactive Weather Map New forecast layout! Learn more

10-Day Weather Forecast

Advertisements
Track Severe Weather on mobile